createdAt,value
2017-08-29T00:01:24.544Z,8.20
2017-08-29T00:03:50.803Z,9.63
2017-08-29T00:06:17.083Z,8.67
2017-08-29T00:08:43.419Z,8.90
2017-08-29T00:11:09.705Z,8.63
2017-08-29T00:13:36.057Z,9.20
2017-08-29T00:16:02.355Z,7.67
2017-08-29T00:18:28.687Z,8.10
2017-08-29T00:20:54.972Z,8.60
2017-08-29T00:23:21.331Z,8.80
2017-08-29T00:25:47.656Z,9.10
2017-08-29T00:28:13.999Z,9.90
2017-08-29T00:30:40.295Z,9.00
2017-08-29T00:33:06.597Z,8.40
2017-08-29T00:35:33.078Z,8.50
2017-08-29T00:37:59.389Z,8.97
2017-08-29T00:40:25.740Z,8.70
2017-08-29T00:42:52.056Z,9.60
2017-08-29T00:45:18.357Z,10.13
2017-08-29T00:47:44.701Z,10.60
2017-08-29T00:50:11.042Z,10.80
2017-08-29T00:52:37.328Z,11.03
2017-08-29T00:55:03.653Z,10.40
2017-08-29T00:57:29.920Z,9.50
2017-08-29T00:59:56.232Z,10.77
2017-08-29T01:02:22.544Z,9.37
2017-08-29T01:04:48.907Z,10.30
2017-08-29T01:07:15.220Z,10.03
2017-08-29T01:09:41.696Z,10.57
2017-08-29T01:12:07.996Z,11.00
2017-08-29T01:14:34.279Z,11.57
2017-08-29T01:17:00.608Z,12.20
2017-08-29T01:19:26.898Z,12.47
2017-08-29T01:21:53.248Z,11.70
2017-08-29T01:24:19.543Z,11.00
2017-08-29T01:26:45.838Z,10.53
2017-08-29T01:29:12.231Z,9.70
2017-08-29T01:31:38.544Z,9.27
2017-08-29T01:34:04.825Z,10.27
2017-08-29T01:36:31.113Z,9.50
2017-08-29T01:38:57.539Z,8.73
2017-08-29T01:41:23.848Z,10.47
2017-08-29T01:43:50.180Z,10.53
2017-08-29T01:46:16.488Z,10.30
2017-08-29T01:48:42.811Z,9.80
2017-08-29T01:51:09.113Z,11.40
2017-08-29T01:53:35.412Z,10.20
2017-08-29T01:56:01.699Z,10.50
2017-08-29T01:58:27.996Z,9.60
2017-08-29T02:00:54.316Z,10.27
2017-08-29T02:03:20.611Z,10.57
2017-08-29T02:05:46.914Z,8.60
2017-08-29T02:08:13.490Z,9.80
2017-08-29T02:10:39.781Z,10.20
2017-08-29T02:13:06.800Z,8.80
2017-08-29T02:15:33.209Z,9.63
2017-08-29T02:17:59.546Z,9.00
2017-08-29T02:20:25.853Z,9.53
2017-08-29T02:22:52.205Z,9.13
2017-08-29T02:25:18.485Z,8.37
2017-08-29T02:27:44.795Z,9.30
2017-08-29T02:30:11.102Z,8.70
2017-08-29T02:32:37.404Z,8.10
2017-08-29T02:35:03.733Z,10.27
2017-08-29T02:37:30.044Z,9.57
2017-08-29T02:39:56.334Z,8.97
2017-08-29T02:42:22.649Z,8.90
2017-08-29T02:44:48.937Z,9.07
2017-08-29T02:47:15.256Z,9.23
2017-08-29T02:49:41.608Z,10.20
2017-08-29T02:52:07.939Z,8.03
2017-08-29T02:54:34.231Z,8.13
2017-08-29T02:57:00.540Z,8.60
2017-08-29T02:59:26.832Z,9.30
2017-08-29T03:01:53.122Z,8.20
2017-08-29T03:04:19.448Z,9.60
2017-08-29T03:06:45.728Z,8.50
2017-08-29T03:09:12.099Z,8.67
2017-08-29T03:11:38.448Z,9.00
2017-08-29T03:14:05.540Z,8.60
2017-08-29T03:16:31.815Z,8.80
2017-08-29T03:18:58.087Z,8.97
2017-08-29T03:21:24.372Z,8.60
2017-08-29T03:23:50.668Z,9.10
2017-08-29T03:26:17.004Z,8.53
2017-08-29T03:28:43.275Z,10.33
2017-08-29T03:31:09.617Z,10.20
2017-08-29T03:33:35.924Z,9.47
2017-08-29T03:36:02.256Z,9.27
2017-08-29T03:38:28.572Z,10.03
2017-08-29T03:40:54.851Z,9.53
2017-08-29T03:43:21.164Z,9.20
2017-08-29T03:45:47.456Z,9.50
2017-08-29T03:48:13.765Z,9.50
2017-08-29T03:50:40.048Z,10.70
2017-08-29T03:53:07.077Z,9.20
2017-08-29T03:55:33.528Z,10.30
2017-08-29T03:57:59.826Z,9.53
2017-08-29T04:00:26.127Z,10.23
2017-08-29T04:02:52.420Z,10.07
2017-08-29T04:05:18.749Z,9.50
2017-08-29T04:07:45.037Z,9.03
2017-08-29T04:10:11.359Z,10.30
2017-08-29T04:12:37.695Z,10.30
2017-08-29T04:15:03.968Z,10.27
2017-08-29T04:17:30.283Z,10.17
2017-08-29T04:19:56.561Z,9.77
2017-08-29T04:22:22.885Z,10.93
2017-08-29T04:24:49.192Z,10.20
2017-08-29T04:27:15.467Z,11.10
2017-08-29T04:29:41.783Z,11.30
2017-08-29T04:32:08.076Z,10.77
2017-08-29T04:34:34.421Z,11.70
2017-08-29T04:37:00.736Z,10.60
2017-08-29T04:39:27.036Z,8.93
2017-08-29T04:41:53.428Z,9.97
2017-08-29T04:44:19.740Z,10.43
2017-08-29T04:46:46.076Z,10.70
2017-08-29T04:49:12.355Z,9.70
2017-08-29T04:51:38.655Z,10.17
2017-08-29T04:54:05.102Z,10.57
2017-08-29T04:56:31.480Z,11.67
2017-08-29T04:58:57.836Z,10.47
2017-08-29T05:01:24.172Z,10.13
2017-08-29T05:03:50.465Z,11.10
2017-08-29T05:06:16.761Z,9.90
2017-08-29T05:08:44.074Z,10.80
2017-08-29T05:11:10.364Z,8.97
2017-08-29T05:13:36.631Z,9.70
2017-08-29T05:16:02.960Z,9.60
2017-08-29T05:18:29.319Z,10.17
2017-08-29T05:20:55.641Z,9.80
2017-08-29T05:23:21.972Z,8.73
2017-08-29T05:25:48.281Z,9.83
2017-08-29T05:28:14.547Z,8.17
2017-08-29T05:30:40.844Z,8.20
2017-08-29T05:33:07.176Z,6.47
2017-08-29T05:35:33.635Z,6.93
2017-08-29T05:37:59.952Z,6.87
2017-08-29T05:40:26.283Z,7.20
2017-08-29T05:42:52.620Z,5.13
2017-08-29T05:45:18.928Z,6.57
2017-08-29T05:47:45.203Z,9.33
2017-08-29T05:50:11.532Z,4.90
2017-08-29T05:52:37.832Z,5.40
2017-08-29T05:55:04.130Z,5.70
2017-08-29T05:57:30.456Z,4.63
2017-08-29T05:59:56.758Z,6.30
2017-08-29T06:02:23.047Z,6.17
2017-08-29T06:04:49.309Z,5.13
2017-08-29T06:07:15.652Z,4.60
2017-08-29T06:09:41.955Z,4.70
2017-08-29T06:12:08.260Z,4.60
2017-08-29T06:14:34.639Z,4.37
2017-08-29T06:17:01.016Z,4.47
2017-08-29T06:19:27.427Z,3.63
2017-08-29T06:21:53.748Z,4.53
2017-08-29T06:24:20.072Z,3.80
2017-08-29T06:26:46.367Z,4.07
2017-08-29T06:29:12.756Z,3.80
2017-08-29T06:31:39.111Z,4.23
2017-08-29T06:34:05.398Z,3.23
2017-08-29T06:36:31.704Z,3.50
2017-08-29T06:38:58.088Z,3.47
2017-08-29T06:41:24.419Z,3.63
2017-08-29T06:43:50.723Z,4.03
2017-08-29T06:46:17.059Z,3.20
2017-08-29T06:48:43.385Z,3.30
2017-08-29T06:51:10.408Z,2.93
2017-08-29T06:53:36.795Z,3.07
2017-08-29T06:56:03.071Z,2.97
2017-08-29T06:58:29.364Z,3.30
2017-08-29T07:00:55.827Z,3.30
2017-08-29T07:03:22.116Z,3.43
2017-08-29T07:05:48.444Z,2.53
2017-08-29T07:08:14.767Z,3.05
2017-08-29T07:10:41.055Z,2.85
2017-08-29T07:13:07.364Z,3.22
2017-08-29T07:15:33.634Z,2.17
2017-08-29T07:17:59.916Z,2.40
2017-08-29T07:20:26.220Z,2.50
2017-08-29T07:22:52.595Z,2.67
2017-08-29T07:25:18.891Z,2.70
2017-08-29T07:27:45.152Z,2.92
2017-08-29T07:30:11.456Z,2.67
2017-08-29T07:32:37.782Z,2.65
2017-08-29T07:35:04.068Z,2.42
2017-08-29T07:37:30.632Z,2.62
2017-08-29T07:39:56.977Z,2.60
2017-08-29T07:42:23.329Z,2.30
2017-08-29T07:44:49.797Z,2.05
2017-08-29T07:47:16.136Z,2.47
2017-08-29T07:49:42.456Z,2.25
2017-08-29T07:52:08.767Z,1.95
2017-08-29T07:54:35.075Z,2.12
2017-08-29T07:57:01.357Z,2.45
2017-08-29T07:59:27.731Z,2.20
2017-08-29T08:01:54.042Z,2.03
2017-08-29T08:04:20.362Z,2.03
2017-08-29T08:06:46.657Z,2.00
2017-08-29T08:09:12.984Z,1.98
2017-08-29T08:11:39.306Z,2.08
2017-08-29T08:14:05.617Z,1.90
2017-08-29T08:16:31.925Z,2.20
2017-08-29T08:18:58.229Z,1.87
2017-08-29T08:21:24.546Z,2.30
2017-08-29T08:23:50.984Z,1.70
2017-08-29T08:26:17.304Z,2.03
2017-08-29T08:28:43.639Z,1.87
2017-08-29T08:31:09.943Z,2.17
2017-08-29T08:33:36.279Z,2.45
2017-08-29T08:36:02.566Z,2.33
2017-08-29T08:38:28.833Z,2.37
2017-08-29T08:40:55.152Z,2.70
2017-08-29T08:43:21.443Z,2.50
2017-08-29T08:45:47.768Z,3.08
2017-08-29T08:48:14.136Z,2.35
2017-08-29T08:50:40.480Z,3.20
2017-08-29T08:53:06.800Z,3.12
2017-08-29T08:55:33.298Z,2.95
2017-08-29T08:57:59.702Z,3.12
2017-08-29T09:00:25.983Z,2.72
2017-08-29T09:02:52.317Z,2.90
2017-08-29T09:05:18.597Z,3.30
2017-08-29T09:07:44.916Z,3.85
2017-08-29T09:10:11.253Z,3.07
2017-08-29T09:12:37.528Z,3.12
2017-08-29T09:15:03.840Z,3.08
2017-08-29T09:17:30.176Z,2.80
2017-08-29T09:19:56.488Z,3.17
2017-08-29T09:22:22.802Z,3.08
2017-08-29T09:24:49.096Z,3.35
2017-08-29T09:27:15.388Z,3.10
2017-08-29T09:29:41.687Z,2.97
2017-08-29T09:32:08.055Z,3.20
2017-08-29T09:34:34.397Z,3.20
2017-08-29T09:37:00.711Z,3.80
2017-08-29T09:39:27.038Z,3.07
2017-08-29T09:41:53.316Z,3.50
2017-08-29T09:44:19.632Z,4.23
2017-08-29T09:46:45.958Z,3.20
2017-08-29T09:49:12.228Z,3.40
2017-08-29T09:51:38.563Z,3.80
2017-08-29T09:54:04.868Z,3.87
2017-08-29T09:56:31.192Z,3.90
2017-08-29T09:58:57.488Z,4.80
2017-08-29T10:01:23.760Z,4.63
2017-08-29T10:03:50.064Z,4.90
2017-08-29T10:06:16.362Z,5.13
2017-08-29T10:08:42.681Z,5.10
2017-08-29T10:11:08.995Z,5.40
2017-08-29T10:13:35.277Z,5.53
2017-08-29T10:16:01.614Z,5.13
2017-08-29T10:18:27.921Z,5.00
2017-08-29T10:20:54.236Z,6.17
2017-08-29T10:23:20.833Z,6.03
2017-08-29T10:25:47.161Z,5.57
2017-08-29T10:28:13.477Z,5.40
2017-08-29T10:30:39.937Z,6.47
2017-08-29T10:33:06.253Z,5.53
2017-08-29T10:35:32.547Z,5.70
2017-08-29T10:37:58.858Z,5.87
2017-08-29T10:40:25.194Z,6.47
2017-08-29T10:42:51.692Z,5.70
2017-08-29T10:45:18.003Z,5.70
2017-08-29T10:47:44.352Z,6.27
2017-08-29T10:50:10.635Z,5.70
2017-08-29T10:52:36.954Z,5.73
2017-08-29T10:55:03.259Z,5.20
2017-08-29T10:57:29.545Z,5.73
2017-08-29T10:59:55.867Z,5.37
2017-08-29T11:02:22.148Z,5.87
2017-08-29T11:04:48.481Z,6.00
2017-08-29T11:07:15.519Z,5.70
2017-08-29T11:09:41.870Z,6.20
2017-08-29T11:12:08.191Z,5.87
2017-08-29T11:14:34.470Z,5.60
2017-08-29T11:17:00.768Z,5.70
2017-08-29T11:19:27.068Z,5.90
2017-08-29T11:21:53.347Z,5.47
2017-08-29T11:24:19.672Z,5.43
2017-08-29T11:26:46.001Z,5.80
2017-08-29T11:29:12.332Z,5.93
2017-08-29T11:31:38.608Z,6.40
2017-08-29T11:34:04.973Z,5.23
2017-08-29T11:36:31.240Z,5.60
2017-08-29T11:38:57.563Z,4.87
2017-08-29T11:41:23.862Z,5.00
2017-08-29T11:43:50.180Z,5.83
2017-08-29T11:46:16.497Z,5.97
2017-08-29T11:48:42.915Z,5.77
2017-08-29T11:51:09.223Z,4.93
2017-08-29T11:53:35.567Z,5.00
2017-08-29T11:56:01.916Z,6.00
2017-08-29T11:58:28.209Z,5.77
2017-08-29T12:00:54.540Z,5.57
2017-08-29T12:03:20.858Z,5.67
2017-08-29T12:05:47.187Z,6.80
2017-08-29T12:08:13.536Z,4.67
2017-08-29T12:10:39.979Z,4.73
2017-08-29T12:13:06.300Z,5.30
2017-08-29T12:15:32.588Z,5.57
2017-08-29T12:17:58.857Z,6.30
2017-08-29T12:20:25.189Z,6.10
2017-08-29T12:22:51.491Z,5.47
2017-08-29T12:25:17.855Z,6.07
2017-08-29T12:27:44.140Z,5.50
2017-08-29T12:30:10.420Z,6.97
2017-08-29T12:32:36.716Z,6.30
2017-08-29T12:35:03.003Z,6.43
2017-08-29T12:37:29.323Z,5.93
2017-08-29T12:39:55.604Z,5.33
2017-08-29T12:42:21.934Z,6.00
2017-08-29T12:44:48.244Z,5.77
2017-08-29T12:47:14.542Z,6.90
2017-08-29T12:49:40.819Z,5.93
2017-08-29T12:52:07.144Z,6.30
2017-08-29T12:54:33.432Z,6.13
2017-08-29T12:56:59.753Z,6.03
2017-08-29T12:59:26.059Z,6.37
2017-08-29T13:01:52.387Z,5.70
2017-08-29T13:04:19.564Z,5.83
2017-08-29T13:06:45.879Z,5.50
2017-08-29T13:09:12.207Z,6.13
2017-08-29T13:11:38.527Z,6.47
2017-08-29T13:14:04.912Z,6.00
2017-08-29T13:16:31.199Z,6.47
2017-08-29T13:18:57.520Z,5.50
2017-08-29T13:21:23.851Z,5.70
2017-08-29T13:23:50.187Z,5.80
2017-08-29T13:26:16.472Z,5.40
2017-08-29T13:28:42.767Z,5.63
2017-08-29T13:31:09.057Z,6.13
2017-08-29T13:33:35.364Z,6.20
2017-08-29T13:36:01.693Z,6.37
2017-08-29T13:38:27.992Z,4.73
2017-08-29T13:40:54.316Z,5.50
2017-08-29T13:43:20.648Z,5.77
2017-08-29T13:45:46.957Z,4.83
2017-08-29T13:48:13.329Z,5.73
2017-08-29T13:50:39.652Z,5.17
2017-08-29T13:53:06.743Z,5.10
2017-08-29T13:55:33.073Z,5.27
2017-08-29T13:57:59.372Z,5.03
2017-08-29T14:00:25.694Z,5.40
2017-08-29T14:02:52.029Z,5.00
2017-08-29T14:05:18.363Z,4.90
2017-08-29T14:07:44.651Z,4.70
2017-08-29T14:10:11.003Z,4.70
2017-08-29T14:12:37.302Z,5.30
2017-08-29T14:15:03.635Z,4.90
2017-08-29T14:17:29.948Z,4.93
2017-08-29T14:19:56.240Z,4.50
2017-08-29T14:22:22.559Z,5.50
2017-08-29T14:24:48.864Z,5.00
2017-08-29T14:27:15.144Z,4.73
2017-08-29T14:29:41.473Z,5.87
2017-08-29T14:32:07.780Z,5.23
2017-08-29T14:34:34.299Z,5.57
2017-08-29T14:37:00.568Z,5.10
2017-08-29T14:39:26.861Z,4.90
2017-08-29T14:41:53.153Z,5.13
2017-08-29T14:44:19.568Z,5.27
2017-08-29T14:46:58.043Z,5.30
2017-08-29T14:49:24.345Z,5.07
2017-08-29T14:51:50.676Z,5.07
2017-08-29T14:54:17.125Z,6.33
2017-08-29T14:56:43.595Z,5.90
2017-08-29T14:59:10.049Z,5.83
2017-08-29T15:01:36.348Z,6.20
2017-08-29T15:04:02.651Z,6.30
2017-08-29T15:06:28.959Z,6.10
2017-08-29T15:08:55.419Z,6.40
2017-08-29T15:11:21.724Z,6.30
2017-08-29T15:13:48.065Z,5.97
2017-08-29T15:16:14.371Z,5.80
2017-08-29T15:18:40.875Z,5.30
2017-08-29T15:21:07.355Z,6.60
2017-08-29T15:23:33.684Z,6.33
2017-08-29T15:26:00.016Z,5.50
2017-08-29T15:28:26.403Z,6.67
2017-08-29T15:30:52.700Z,6.60
2017-08-29T15:33:19.007Z,6.53
2017-08-29T15:35:45.396Z,6.40
2017-08-29T15:38:11.756Z,6.67
2017-08-29T15:40:38.115Z,6.63
2017-08-29T15:43:04.413Z,6.30
2017-08-29T15:45:30.727Z,7.07
2017-08-29T15:47:57.051Z,6.50
2017-08-29T15:50:23.387Z,6.70
2017-08-29T15:52:49.671Z,6.77
2017-08-29T15:55:16.003Z,6.13
2017-08-29T15:57:42.288Z,6.10
2017-08-29T16:00:08.565Z,6.57
2017-08-29T16:02:34.981Z,6.33
2017-08-29T16:05:01.468Z,6.37
2017-08-29T16:07:27.797Z,6.57
2017-08-29T16:09:54.121Z,6.63
2017-08-29T16:12:20.399Z,7.10
2017-08-29T16:14:46.752Z,6.40
2017-08-29T16:17:13.773Z,7.60
2017-08-29T16:19:40.106Z,7.50
2017-08-29T16:22:06.401Z,7.10
2017-08-29T16:24:32.720Z,6.57
2017-08-29T16:26:59.214Z,7.80
2017-08-29T16:29:25.549Z,6.60
2017-08-29T16:31:51.916Z,7.77
2017-08-29T16:34:18.256Z,6.90
2017-08-29T16:36:44.629Z,7.63
2017-08-29T16:39:10.932Z,7.33
2017-08-29T16:41:37.230Z,6.47
2017-08-29T16:44:03.685Z,7.83
2017-08-29T16:46:29.981Z,7.30
2017-08-29T16:48:56.260Z,7.90
2017-08-29T16:51:22.584Z,7.30
2017-08-29T16:53:48.883Z,7.33
2017-08-29T16:56:15.200Z,8.50
2017-08-29T16:58:41.512Z,8.50
2017-08-29T17:01:07.810Z,7.43
2017-08-29T17:03:34.120Z,7.67
2017-08-29T17:06:00.447Z,8.37
2017-08-29T17:08:26.791Z,7.80
2017-08-29T17:10:53.113Z,7.70
2017-08-29T17:13:19.443Z,8.13
2017-08-29T17:15:45.768Z,7.87
2017-08-29T17:18:12.048Z,8.50
2017-08-29T17:20:38.433Z,9.27
2017-08-29T17:23:04.749Z,10.83
2017-08-29T17:25:31.112Z,8.20
2017-08-29T17:27:57.428Z,7.20
2017-08-29T17:30:23.916Z,7.70
2017-08-29T17:32:50.248Z,7.83
2017-08-29T17:35:16.564Z,9.33
2017-08-29T17:37:42.876Z,8.53
2017-08-29T17:40:09.192Z,10.03
2017-08-29T17:42:35.552Z,8.73
2017-08-29T17:45:01.870Z,9.67
2017-08-29T17:47:28.168Z,8.77
2017-08-29T17:49:54.487Z,11.20
2017-08-29T17:52:20.813Z,9.20
2017-08-29T17:54:47.140Z,9.50
2017-08-29T17:57:13.449Z,9.43
2017-08-29T17:59:39.789Z,8.67
2017-08-29T18:02:06.101Z,9.30
2017-08-29T18:04:32.421Z,9.57
2017-08-29T18:06:58.717Z,10.17
2017-08-29T18:09:25.016Z,8.70
2017-08-29T18:11:51.391Z,11.47
2017-08-29T18:14:17.664Z,11.37
2017-08-29T18:16:44.476Z,11.80
2017-08-29T18:19:10.791Z,9.70
2017-08-29T18:21:37.146Z,10.70
2017-08-29T18:24:03.481Z,9.93
2017-08-29T18:26:29.808Z,11.07
2017-08-29T18:28:56.155Z,12.30
2017-08-29T18:31:22.433Z,10.77
2017-08-29T18:33:48.750Z,11.80
2017-08-29T18:36:15.181Z,12.60
2017-08-29T18:38:41.449Z,12.83
2017-08-29T18:41:07.777Z,14.37
2017-08-29T18:43:34.104Z,13.70
2017-08-29T18:46:00.488Z,13.73
2017-08-29T18:48:26.805Z,13.40
2017-08-29T18:50:53.181Z,13.80
2017-08-29T18:53:19.698Z,10.53
2017-08-29T18:55:46.009Z,10.10
2017-08-29T18:58:12.374Z,10.10
2017-08-29T19:00:38.668Z,11.37
2017-08-29T19:03:05.011Z,12.30
2017-08-29T19:05:31.393Z,11.80
2017-08-29T19:07:57.828Z,10.00
2017-08-29T19:10:24.220Z,9.87
2017-08-29T19:12:50.547Z,10.30
2017-08-29T19:15:16.904Z,10.13
2017-08-29T19:17:43.225Z,10.10
2017-08-29T19:20:09.565Z,10.60
2017-08-29T19:22:35.909Z,10.37
2017-08-29T19:25:02.245Z,10.20
2017-08-29T19:27:28.577Z,10.10
2017-08-29T19:29:54.963Z,8.73
2017-08-29T19:32:21.381Z,8.70
2017-08-29T19:34:47.892Z,9.50
2017-08-29T19:37:14.243Z,8.90
2017-08-29T19:39:40.581Z,9.63
2017-08-29T19:42:06.900Z,9.40
2017-08-29T19:44:33.272Z,10.60
2017-08-29T19:46:59.603Z,11.07
2017-08-29T19:49:26.041Z,9.70
2017-08-29T19:51:52.422Z,9.20
2017-08-29T19:54:18.738Z,9.90
2017-08-29T19:56:45.086Z,9.90
2017-08-29T19:59:11.373Z,9.50
2017-08-29T20:01:37.680Z,9.93
2017-08-29T20:04:04.050Z,9.83
2017-08-29T20:06:30.415Z,9.60
2017-08-29T20:08:56.799Z,9.50
2017-08-29T20:11:23.133Z,9.80
2017-08-29T20:13:49.521Z,9.20
2017-08-29T20:16:15.914Z,9.00
2017-08-29T20:18:42.268Z,8.57
2017-08-29T20:21:08.628Z,7.70
2017-08-29T20:23:34.871Z,9.60
2017-08-29T20:26:01.239Z,9.27
2017-08-29T20:28:27.605Z,9.27
2017-08-29T20:30:53.955Z,10.27
2017-08-29T20:33:20.355Z,9.33
2017-08-29T20:35:46.734Z,9.57
2017-08-29T20:38:13.032Z,10.20
2017-08-29T20:40:39.367Z,10.63
2017-08-29T20:43:05.707Z,10.13
2017-08-29T20:45:32.060Z,10.17
2017-08-29T20:47:58.387Z,10.87
2017-08-29T20:50:24.677Z,9.13
2017-08-29T20:52:51.024Z,10.97
2017-08-29T20:55:17.529Z,10.60
2017-08-29T20:57:43.904Z,9.83
2017-08-29T21:00:10.224Z,10.27
2017-08-29T21:02:36.545Z,10.90
2017-08-29T21:05:02.881Z,10.30
2017-08-29T21:07:29.205Z,11.20
2017-08-29T21:09:55.580Z,10.33
2017-08-29T21:12:21.876Z,12.43
2017-08-29T21:14:48.216Z,11.87
2017-08-29T21:17:14.536Z,12.47
2017-08-29T21:19:47.755Z,12.17
2017-08-29T21:22:14.076Z,11.00
2017-08-29T21:24:40.373Z,11.90
2017-08-29T21:27:06.714Z,11.23
2017-08-29T21:29:33.016Z,11.10
2017-08-29T21:31:59.340Z,11.03
2017-08-29T21:34:25.867Z,12.83
2017-08-29T21:36:52.208Z,12.60
2017-08-29T21:39:18.496Z,14.67
2017-08-29T21:41:45.531Z,12.03
2017-08-29T21:44:11.865Z,13.03
2017-08-29T21:46:38.159Z,12.20
2017-08-29T21:49:04.471Z,11.93
2017-08-29T21:51:30.784Z,12.13
2017-08-29T21:53:57.116Z,12.50
2017-08-29T21:56:23.589Z,12.80
2017-08-29T21:58:49.929Z,12.13
2017-08-29T22:01:16.211Z,13.50
2017-08-29T22:03:42.513Z,11.70
2017-08-29T22:06:08.817Z,13.97
2017-08-29T22:08:35.160Z,12.60
2017-08-29T22:11:01.503Z,13.57
2017-08-29T22:13:27.845Z,12.93
2017-08-29T22:15:54.182Z,12.27
2017-08-29T22:18:20.493Z,14.10
2017-08-29T22:20:46.841Z,13.37
2017-08-29T22:23:13.131Z,13.17
2017-08-29T22:25:39.436Z,13.27
2017-08-29T22:28:05.772Z,14.00
2017-08-29T22:30:32.093Z,12.40
2017-08-29T22:32:58.459Z,14.73
2017-08-29T22:35:24.796Z,13.60
2017-08-29T22:37:51.123Z,13.67
2017-08-29T22:40:17.440Z,13.60
2017-08-29T22:42:43.743Z,12.70
2017-08-29T22:45:10.044Z,13.47
2017-08-29T22:47:36.331Z,14.10
2017-08-29T22:50:02.645Z,13.33
2017-08-29T22:52:28.963Z,13.93
2017-08-29T22:54:55.260Z,13.83
2017-08-29T22:57:21.701Z,14.53
2017-08-29T22:59:48.008Z,14.40
2017-08-29T23:02:14.299Z,14.93
2017-08-29T23:04:40.809Z,15.00
2017-08-29T23:07:07.153Z,14.87
2017-08-29T23:09:33.495Z,15.90
2017-08-29T23:11:59.840Z,15.97
2017-08-29T23:14:26.165Z,14.33
2017-08-29T23:16:52.436Z,15.50
2017-08-29T23:19:18.734Z,13.60
2017-08-29T23:21:45.035Z,15.73
2017-08-29T23:24:11.334Z,14.23
2017-08-29T23:26:37.672Z,13.13
2017-08-29T23:29:04.081Z,14.27
2017-08-29T23:31:30.417Z,12.53
2017-08-29T23:33:56.704Z,14.37
2017-08-29T23:36:23.004Z,13.50
2017-08-29T23:38:49.356Z,13.63
2017-08-29T23:41:15.625Z,14.50
2017-08-29T23:43:41.980Z,14.77
2017-08-29T23:46:08.271Z,15.00
2017-08-29T23:48:34.583Z,15.50
2017-08-29T23:51:00.871Z,15.70
2017-08-29T23:53:27.171Z,15.40
2017-08-29T23:55:53.484Z,15.70
2017-08-29T23:58:19.740Z,15.60
